createdAt,value
2022-11-13T00:00:57.518Z,0.70
2022-11-13T00:03:24.324Z,0.73
2022-11-13T00:06:01.829Z,0.70
2022-11-13T00:08:28.836Z,0.80
2022-11-13T00:11:07.071Z,0.70
2022-11-13T00:13:34.207Z,1.30
2022-11-13T00:16:03.709Z,0.87
2022-11-13T00:18:31.413Z,1.00
2022-11-13T00:21:04.052Z,0.83
2022-11-13T00:23:34.612Z,0.93
2022-11-13T00:26:18.550Z,1.17
2022-11-13T00:28:46.887Z,1.10
2022-11-13T00:31:15.357Z,0.63
2022-11-13T00:36:29.629Z,0.87
2022-11-13T00:38:56.818Z,0.70
2022-11-13T00:41:24.373Z,0.70
2022-11-13T00:43:51.618Z,0.73
2022-11-13T00:46:18.716Z,0.77
2022-11-13T00:48:45.303Z,0.70
2022-11-13T00:51:12.005Z,0.80
2022-11-13T00:53:38.984Z,0.60
2022-11-13T00:56:06.208Z,0.70
2022-11-13T00:58:33.259Z,0.50
2022-11-13T01:01:12.370Z,0.70
2022-11-13T01:03:39.502Z,0.70
2022-11-13T01:06:15.941Z,0.87
2022-11-13T01:08:42.687Z,0.70
2022-11-13T01:11:14.812Z,0.80
2022-11-13T01:13:43.072Z,0.60
2022-11-13T01:16:12.378Z,0.87
2022-11-13T01:18:39.414Z,0.80
2022-11-13T01:21:08.989Z,0.53
2022-11-13T01:23:35.830Z,0.70
2022-11-13T01:26:21.071Z,0.70
2022-11-13T01:28:48.252Z,0.93
2022-11-13T01:31:20.936Z,0.70
2022-11-13T01:33:48.664Z,0.70
2022-11-13T01:36:18.685Z,0.63
2022-11-13T01:38:45.699Z,0.60
2022-11-13T01:41:24.658Z,0.60
2022-11-13T01:43:53.003Z,0.60
2022-11-13T01:46:25.100Z,0.60
2022-11-13T01:48:58.165Z,0.70
2022-11-13T01:51:30.479Z,0.40
2022-11-13T01:53:58.517Z,0.60
2022-11-13T01:56:26.215Z,0.60
2022-11-13T01:59:05.117Z,0.60
2022-11-13T02:01:32.161Z,0.80
2022-11-13T02:03:59.197Z,0.50
2022-11-13T02:06:28.856Z,1.10
2022-11-13T02:08:55.515Z,0.50
2022-11-13T02:11:22.473Z,0.80
2022-11-13T02:13:49.674Z,1.07
2022-11-13T02:16:16.842Z,0.60
2022-11-13T02:18:43.596Z,0.50
2022-11-13T02:21:27.024Z,0.47
2022-11-13T02:24:25.808Z,0.40
2022-11-13T02:26:56.490Z,0.60
2022-11-13T02:29:23.476Z,0.60
2022-11-13T02:31:50.489Z,0.57
2022-11-13T02:34:17.481Z,0.50
2022-11-13T02:36:44.556Z,0.40
2022-11-13T02:39:12.961Z,0.50
2022-11-13T02:41:39.967Z,0.60
2022-11-13T02:44:06.970Z,0.40
2022-11-13T02:46:34.401Z,0.33
2022-11-13T02:49:01.497Z,0.57
2022-11-13T02:51:28.063Z,0.50
2022-11-13T02:53:55.182Z,0.60
2022-11-13T02:56:22.394Z,0.40
2022-11-13T02:58:48.971Z,0.43
2022-11-13T03:01:15.635Z,0.40
2022-11-13T03:03:58.048Z,0.43
2022-11-13T03:06:25.161Z,0.30
2022-11-13T03:08:52.153Z,0.70
2022-11-13T03:11:19.201Z,0.40
2022-11-13T03:13:46.218Z,0.40
2022-11-13T03:16:17.144Z,0.40
2022-11-13T03:18:43.853Z,0.40
2022-11-13T03:21:13.835Z,0.40
2022-11-13T03:23:41.860Z,0.40
2022-11-13T03:26:11.152Z,0.40
2022-11-13T03:28:38.005Z,0.40
2022-11-13T03:31:05.488Z,0.50
2022-11-13T03:33:32.518Z,0.50
2022-11-13T03:35:59.344Z,0.60
2022-11-13T03:38:26.668Z,0.30
2022-11-13T03:40:53.924Z,0.43
2022-11-13T03:43:20.461Z,0.40
2022-11-13T03:45:47.915Z,0.40
2022-11-13T03:48:15.732Z,0.30
2022-11-13T03:50:52.231Z,0.97
2022-11-13T03:53:19.264Z,0.30
2022-11-13T03:55:47.133Z,0.20
2022-11-13T03:58:14.280Z,0.30
2022-11-13T04:00:41.672Z,0.30
2022-11-13T04:03:08.687Z,0.40
2022-11-13T04:05:35.317Z,0.30
2022-11-13T04:08:02.416Z,0.43
2022-11-13T04:10:29.620Z,0.27
2022-11-13T04:12:56.172Z,0.30
2022-11-13T04:15:23.502Z,0.40
2022-11-13T04:17:50.530Z,0.30
2022-11-13T04:20:17.613Z,0.20
2022-11-13T04:22:44.627Z,0.50
2022-11-13T04:25:11.227Z,0.47
2022-11-13T04:27:38.210Z,0.30
2022-11-13T04:30:05.859Z,0.37
2022-11-13T04:32:32.927Z,0.30
2022-11-13T04:34:59.554Z,0.50
2022-11-13T04:37:26.625Z,0.30
2022-11-13T04:39:53.273Z,0.40
2022-11-13T04:42:38.676Z,0.40
2022-11-13T04:45:05.785Z,0.20
2022-11-13T04:47:32.790Z,0.57
2022-11-13T04:49:59.775Z,0.27
2022-11-13T04:52:28.429Z,0.30
2022-11-13T04:54:55.432Z,0.27
2022-11-13T04:57:22.440Z,0.40
2022-11-13T04:59:49.459Z,0.20
2022-11-13T05:02:16.583Z,0.50
2022-11-13T05:04:43.588Z,0.60
2022-11-13T05:07:10.481Z,0.40
2022-11-13T05:09:37.571Z,0.50
2022-11-13T05:12:07.821Z,0.50
2022-11-13T05:14:36.061Z,0.20
2022-11-13T05:17:03.285Z,0.40
2022-11-13T05:19:30.281Z,0.50
2022-11-13T05:21:56.876Z,0.40
2022-11-13T05:24:23.955Z,0.40
2022-11-13T05:26:51.019Z,0.40
2022-11-13T05:29:18.288Z,0.30
2022-11-13T05:31:45.308Z,0.40
2022-11-13T05:34:12.293Z,0.30
2022-11-13T05:36:38.882Z,0.20
2022-11-13T05:39:06.165Z,0.23
2022-11-13T05:41:32.833Z,0.40
2022-11-13T05:44:00.064Z,0.30
2022-11-13T05:46:29.448Z,0.30
2022-11-13T05:49:00.882Z,0.20
2022-11-13T05:51:30.169Z,0.40
2022-11-13T05:53:57.486Z,0.20
2022-11-13T05:56:32.779Z,0.60
2022-11-13T05:59:00.264Z,0.27
2022-11-13T06:01:38.610Z,0.20
2022-11-13T06:04:07.143Z,0.40
2022-11-13T06:06:34.450Z,0.40
2022-11-13T06:09:02.903Z,0.40
2022-11-13T06:11:30.949Z,0.60
2022-11-13T06:13:59.123Z,0.63
2022-11-13T06:16:30.483Z,0.20
2022-11-13T06:18:59.059Z,0.23
2022-11-13T06:21:30.093Z,0.40
2022-11-13T06:23:57.722Z,0.20
2022-11-13T06:26:27.341Z,0.20
2022-11-13T06:28:54.340Z,0.37
2022-11-13T06:31:23.617Z,0.20
2022-11-13T06:33:50.655Z,0.30
2022-11-13T06:36:19.920Z,0.20
2022-11-13T06:38:47.931Z,0.33
2022-11-13T06:41:16.571Z,0.20
2022-11-13T06:43:43.581Z,0.30
2022-11-13T06:46:15.737Z,0.50
2022-11-13T06:48:42.448Z,0.40
2022-11-13T06:51:18.727Z,0.47
2022-11-13T06:53:45.733Z,0.40
2022-11-13T06:56:13.305Z,0.40
2022-11-13T06:58:40.577Z,0.50
2022-11-13T07:01:09.085Z,0.30
2022-11-13T07:03:35.865Z,0.40
2022-11-13T07:06:04.585Z,0.40
2022-11-13T07:08:32.050Z,0.40
2022-11-13T07:10:59.781Z,0.63
2022-11-13T07:13:27.692Z,0.50
2022-11-13T07:15:54.697Z,0.40
2022-11-13T07:18:24.458Z,0.40
2022-11-13T07:20:51.031Z,3.13
2022-11-13T07:23:17.589Z,1.20
2022-11-13T07:25:44.596Z,0.60
2022-11-13T07:28:11.158Z,0.53
2022-11-13T07:30:38.185Z,0.47
2022-11-13T07:33:05.307Z,0.50
2022-11-13T07:35:31.889Z,0.40
2022-11-13T07:37:59.303Z,0.30
2022-11-13T07:40:26.111Z,0.77
2022-11-13T07:43:00.464Z,0.40
2022-11-13T07:45:30.460Z,0.40
2022-11-13T07:48:01.395Z,0.90
2022-11-13T07:50:30.383Z,0.30
2022-11-13T07:52:58.632Z,0.20
2022-11-13T07:55:25.689Z,0.27
2022-11-13T07:57:56.920Z,0.47
2022-11-13T08:00:24.765Z,0.20
2022-11-13T08:02:51.868Z,0.30
2022-11-13T08:05:18.725Z,0.30
2022-11-13T08:07:52.476Z,0.30
2022-11-13T08:10:20.504Z,0.50
2022-11-13T08:12:47.172Z,0.50
2022-11-13T08:15:14.286Z,0.50
2022-11-13T08:17:41.517Z,0.53
2022-11-13T08:20:09.041Z,1.10
2022-11-13T08:22:35.771Z,1.10
2022-11-13T08:25:02.905Z,1.10
2022-11-13T08:27:29.522Z,1.50
2022-11-13T08:29:56.508Z,1.23
2022-11-13T08:32:23.554Z,1.23
2022-11-13T08:34:50.526Z,1.10
2022-11-13T08:37:17.079Z,1.10
2022-11-13T08:39:44.083Z,1.30
2022-11-13T08:42:11.080Z,1.30
2022-11-13T08:44:38.077Z,1.00
2022-11-13T08:47:05.273Z,1.20
2022-11-13T08:49:32.325Z,1.53
2022-11-13T08:51:59.461Z,1.70
2022-11-13T08:54:26.016Z,1.60
2022-11-13T08:56:56.155Z,1.57
2022-11-13T08:59:23.879Z,1.33
2022-11-13T09:01:53.320Z,1.50
2022-11-13T09:04:20.337Z,0.60
2022-11-13T09:06:47.406Z,0.77
2022-11-13T09:09:15.069Z,1.23
2022-11-13T09:11:41.704Z,0.70
2022-11-13T09:14:08.339Z,0.80
2022-11-13T09:16:35.009Z,1.23
2022-11-13T09:19:02.184Z,1.10
2022-11-13T09:21:28.735Z,1.00
2022-11-13T09:23:55.467Z,1.07
2022-11-13T09:26:22.528Z,1.30
2022-11-13T09:28:49.249Z,1.30
2022-11-13T09:31:15.897Z,1.30
2022-11-13T09:33:42.483Z,1.17
2022-11-13T09:36:15.304Z,1.30
2022-11-13T09:38:42.403Z,0.80
2022-11-13T09:41:17.293Z,1.30
2022-11-13T09:43:49.235Z,1.00
2022-11-13T09:46:33.883Z,0.93
2022-11-13T09:49:14.732Z,1.00
2022-11-13T09:51:43.548Z,1.10
2022-11-13T09:54:13.477Z,1.27
2022-11-13T09:57:01.218Z,1.10
2022-11-13T09:59:35.021Z,1.43
2022-11-13T10:02:08.363Z,1.10
2022-11-13T10:04:45.446Z,1.10
2022-11-13T10:07:53.401Z,1.13
2022-11-13T10:10:44.978Z,1.03
2022-11-13T10:13:15.754Z,0.90
2022-11-13T10:15:45.294Z,1.07
2022-11-13T10:18:18.233Z,1.20
2022-11-13T10:20:51.507Z,1.23
2022-11-13T10:23:24.375Z,0.80
2022-11-13T10:25:52.341Z,1.17
2022-11-13T10:28:49.300Z,1.00
2022-11-13T10:31:12.709Z,1.00
2022-11-13T10:33:39.312Z,0.90
2022-11-13T10:36:45.652Z,0.90
2022-11-13T10:39:12.204Z,0.80
2022-11-13T10:41:53.470Z,1.00
2022-11-13T10:44:30.309Z,0.80
2022-11-13T10:47:42.479Z,0.70
2022-11-13T10:50:28.322Z,0.73
2022-11-13T10:52:56.400Z,0.90
2022-11-13T10:55:30.656Z,3.07
2022-11-13T10:58:02.916Z,1.50
2022-11-13T11:00:38.622Z,1.10
2022-11-13T11:03:13.263Z,0.83
2022-11-13T11:05:39.919Z,1.00
2022-11-13T11:08:10.985Z,1.00
2022-11-13T11:10:59.246Z,0.87
2022-11-13T11:13:27.823Z,0.97
2022-11-13T11:15:59.235Z,0.80
2022-11-13T11:18:32.346Z,0.90
2022-11-13T11:21:01.895Z,1.07
2022-11-13T11:23:55.585Z,0.83
2022-11-13T11:26:50.932Z,0.70
2022-11-13T11:29:26.655Z,0.90
2022-11-13T11:32:14.884Z,1.00
2022-11-13T11:34:54.951Z,1.00
2022-11-13T11:37:31.043Z,0.80
2022-11-13T11:40:15.135Z,0.80
2022-11-13T11:42:55.904Z,0.70
2022-11-13T11:45:44.259Z,0.77
2022-11-13T11:48:17.925Z,0.97
2022-11-13T11:50:58.443Z,0.83
2022-11-13T11:53:45.770Z,0.80
2022-11-13T11:56:24.886Z,0.70
2022-11-13T11:59:25.899Z,0.70
2022-11-13T12:02:02.005Z,0.70
2022-11-13T12:04:50.434Z,1.00
2022-11-13T12:07:58.093Z,0.80
2022-11-13T12:10:52.658Z,0.80
2022-11-13T12:13:31.859Z,0.70
2022-11-13T12:16:13.338Z,0.83
2022-11-13T12:19:03.579Z,0.87
2022-11-13T12:21:53.997Z,0.60
2022-11-13T12:24:57.257Z,0.70
2022-11-13T12:27:42.409Z,0.80
2022-11-13T12:30:28.939Z,0.80
2022-11-13T12:33:11.512Z,0.73
2022-11-13T12:35:39.107Z,0.60
2022-11-13T12:38:19.903Z,0.50
2022-11-13T12:41:28.405Z,0.70
2022-11-13T12:44:27.499Z,0.60
2022-11-13T12:46:56.013Z,0.70
2022-11-13T12:49:22.528Z,0.73
2022-11-13T12:52:01.294Z,0.53
2022-11-13T12:54:33.397Z,0.80
2022-11-13T12:57:30.471Z,0.70
2022-11-13T13:00:00.509Z,0.63
2022-11-13T13:02:34.589Z,0.53
2022-11-13T13:05:26.252Z,0.90
2022-11-13T13:08:17.941Z,0.70
2022-11-13T13:11:22.287Z,0.60
2022-11-13T13:14:15.157Z,1.00
2022-11-13T13:16:41.842Z,0.63
2022-11-13T13:19:22.827Z,0.60
2022-11-13T13:21:49.475Z,0.60
2022-11-13T13:24:31.891Z,0.80
2022-11-13T13:27:00.111Z,0.60
2022-11-13T13:29:28.672Z,0.63
2022-11-13T13:32:11.613Z,0.60
2022-11-13T13:35:14.685Z,0.67
2022-11-13T13:38:10.705Z,0.60
2022-11-13T13:40:52.305Z,0.60
2022-11-13T13:43:19.300Z,0.67
2022-11-13T13:46:04.363Z,0.73
2022-11-13T13:48:32.063Z,0.87
2022-11-13T13:51:00.367Z,0.80
2022-11-13T13:53:31.453Z,0.70
2022-11-13T13:55:58.965Z,0.70
2022-11-13T13:58:33.340Z,0.67
2022-11-13T14:01:18.439Z,0.60
2022-11-13T14:03:46.241Z,0.70
2022-11-13T14:06:21.870Z,0.60
2022-11-13T14:08:48.619Z,0.50
2022-11-13T14:11:20.268Z,0.80
2022-11-13T14:13:46.889Z,0.60
2022-11-13T14:16:13.990Z,0.70
2022-11-13T14:18:40.609Z,0.90
2022-11-13T14:21:20.652Z,0.90
2022-11-13T14:23:51.817Z,0.90
2022-11-13T14:26:19.838Z,0.80
2022-11-13T14:29:03.183Z,0.90
2022-11-13T14:31:35.246Z,1.10
2022-11-13T14:34:09.056Z,0.80
2022-11-13T14:36:37.127Z,0.80
2022-11-13T14:39:04.463Z,1.03
2022-11-13T14:41:38.683Z,0.90
2022-11-13T14:44:05.847Z,1.10
2022-11-13T14:46:38.162Z,1.37
2022-11-13T14:49:15.087Z,0.90
2022-11-13T14:51:41.868Z,0.90
2022-11-13T14:54:33.791Z,1.53
2022-11-13T14:57:13.809Z,0.87
2022-11-13T14:59:42.409Z,1.27
2022-11-13T15:02:11.049Z,1.50
2022-11-13T15:04:40.425Z,1.00
2022-11-13T15:07:41.032Z,1.30
2022-11-13T15:10:14.563Z,2.20
2022-11-13T15:12:41.235Z,4.60
2022-11-13T15:15:32.804Z,4.80
2022-11-13T15:18:01.458Z,1.80
2022-11-13T15:20:30.374Z,1.60
2022-11-13T15:22:59.246Z,2.60
2022-11-13T15:25:26.911Z,1.80
2022-11-13T15:27:53.504Z,2.60
2022-11-13T15:30:20.519Z,3.03
2022-11-13T15:32:48.989Z,2.20
2022-11-13T15:35:18.018Z,1.80
2022-11-13T15:37:45.254Z,1.97
2022-11-13T15:40:13.603Z,1.77
2022-11-13T15:42:41.013Z,1.80
2022-11-13T15:45:15.105Z,1.53
2022-11-13T15:47:42.067Z,1.97
2022-11-13T15:50:14.067Z,1.77
2022-11-13T15:52:47.812Z,1.80
2022-11-13T15:55:23.064Z,1.70
2022-11-13T15:57:49.927Z,1.87
2022-11-13T16:00:18.944Z,2.10
2022-11-13T16:02:50.001Z,2.23
2022-11-13T16:05:17.094Z,2.33
2022-11-13T16:07:43.770Z,1.80
2022-11-13T16:10:11.143Z,1.90
2022-11-13T16:12:38.587Z,1.80
2022-11-13T16:15:05.876Z,1.83
2022-11-13T16:17:37.326Z,1.80
2022-11-13T16:20:07.496Z,1.40
2022-11-13T16:22:34.151Z,1.47
2022-11-13T16:25:00.827Z,1.43
2022-11-13T16:27:33.929Z,1.27
2022-11-13T16:30:06.310Z,1.10
2022-11-13T16:32:33.402Z,1.20
2022-11-13T16:35:00.412Z,1.30
2022-11-13T16:37:27.587Z,1.90
2022-11-13T16:39:54.199Z,1.90
2022-11-13T16:42:21.196Z,3.13
2022-11-13T16:44:48.229Z,1.60
2022-11-13T16:47:25.808Z,1.67
2022-11-13T16:49:52.910Z,1.57
2022-11-13T16:52:19.974Z,1.50
2022-11-13T16:54:46.608Z,1.20
2022-11-13T16:57:14.534Z,1.30
2022-11-13T16:59:41.329Z,1.40
2022-11-13T17:02:16.265Z,1.93
2022-11-13T17:04:44.230Z,2.53
2022-11-13T17:07:13.119Z,1.50
2022-11-13T17:09:44.490Z,2.70
2022-11-13T17:12:11.891Z,17.10
2022-11-13T17:14:39.255Z,7.10
2022-11-13T17:17:08.535Z,32.77
2022-11-13T17:19:35.145Z,9.43
2022-11-13T17:22:02.190Z,8.63
2022-11-13T17:24:28.748Z,7.73
2022-11-13T17:26:55.824Z,6.33
2022-11-13T17:29:22.476Z,4.40
2022-11-13T17:31:49.563Z,9.93
2022-11-13T17:34:16.629Z,8.40
2022-11-13T17:36:43.629Z,3.30
2022-11-13T17:39:11.361Z,2.30
2022-11-13T17:41:38.428Z,2.50
2022-11-13T17:44:05.517Z,2.60
2022-11-13T17:46:32.555Z,3.30
2022-11-13T17:48:59.188Z,2.73
2022-11-13T17:51:26.666Z,2.50
2022-11-13T17:53:53.267Z,3.27
2022-11-13T17:56:20.169Z,3.03
2022-11-13T17:58:47.240Z,6.90
2022-11-13T18:01:16.624Z,5.93
2022-11-13T18:03:43.804Z,6.17
2022-11-13T18:06:13.627Z,6.53
2022-11-13T18:08:42.231Z,4.70
2022-11-13T18:11:24.370Z,6.20
2022-11-13T18:13:51.868Z,6.27
2022-11-13T18:16:25.541Z,4.70
2022-11-13T18:18:55.277Z,4.30
2022-11-13T18:21:28.087Z,4.07
2022-11-13T18:24:07.058Z,3.20
2022-11-13T18:26:34.575Z,3.20
2022-11-13T18:29:02.102Z,2.67
2022-11-13T18:31:29.468Z,2.87
2022-11-13T18:33:58.720Z,3.10
2022-11-13T18:36:25.740Z,3.20
2022-11-13T18:38:52.368Z,3.07
2022-11-13T18:41:22.340Z,3.23
2022-11-13T18:43:50.495Z,2.80
2022-11-13T18:46:19.241Z,2.47
2022-11-13T18:48:47.692Z,2.90
2022-11-13T18:51:17.383Z,2.50
2022-11-13T18:53:45.664Z,3.67
2022-11-13T18:56:18.054Z,2.80
2022-11-13T18:58:46.765Z,3.00
2022-11-13T19:01:22.363Z,3.50
2022-11-13T19:04:08.681Z,3.10
2022-11-13T19:06:38.619Z,3.67
2022-11-13T19:09:07.737Z,3.80
2022-11-13T19:11:35.129Z,3.80
2022-11-13T19:14:01.964Z,4.63
2022-11-13T19:16:33.164Z,4.20
2022-11-13T19:19:03.425Z,4.30
2022-11-13T19:21:32.703Z,4.53
2022-11-13T19:24:01.100Z,4.50
2022-11-13T19:26:27.947Z,4.70
2022-11-13T19:28:55.291Z,4.70
2022-11-13T19:31:25.019Z,4.23
2022-11-13T19:34:00.683Z,4.57
2022-11-13T19:36:28.769Z,5.27
2022-11-13T19:38:56.244Z,5.33
2022-11-13T19:41:25.254Z,5.27
2022-11-13T19:43:52.275Z,5.33
2022-11-13T19:46:19.923Z,4.20
2022-11-13T19:48:49.140Z,5.27
2022-11-13T19:51:21.995Z,4.67
2022-11-13T19:53:53.484Z,4.73
2022-11-13T19:56:21.950Z,4.57
2022-11-13T19:58:49.781Z,4.43
2022-11-13T20:01:19.007Z,5.27
2022-11-13T20:03:46.471Z,5.13
2022-11-13T20:06:17.127Z,4.87
2022-11-13T20:08:44.210Z,4.67
2022-11-13T20:11:14.178Z,4.67
2022-11-13T20:13:41.657Z,5.23
2022-11-13T20:16:10.323Z,4.80
2022-11-13T20:18:37.439Z,5.67
2022-11-13T20:21:04.837Z,4.90
2022-11-13T20:23:32.543Z,5.17
2022-11-13T20:26:01.848Z,6.20
2022-11-13T20:28:29.809Z,5.80
2022-11-13T20:31:17.536Z,5.27
2022-11-13T20:33:44.159Z,5.93
2022-11-13T20:36:11.398Z,7.10
2022-11-13T20:38:38.481Z,6.43
2022-11-13T20:41:06.510Z,6.53
2022-11-13T20:43:33.754Z,6.43
2022-11-13T20:46:11.402Z,6.43
2022-11-13T20:48:38.602Z,6.77
2022-11-13T20:51:14.646Z,5.83
2022-11-13T20:53:41.713Z,5.37
2022-11-13T20:56:09.174Z,6.03
2022-11-13T20:58:36.191Z,5.90
2022-11-13T21:01:15.313Z,6.30
2022-11-13T21:03:43.793Z,6.80
2022-11-13T21:06:15.297Z,6.70
2022-11-13T21:08:42.022Z,6.23
2022-11-13T21:11:16.516Z,6.70
2022-11-13T21:13:43.520Z,6.10
2022-11-13T21:16:10.997Z,5.87
2022-11-13T21:18:38.248Z,6.10
2022-11-13T21:21:13.684Z,5.50
2022-11-13T21:23:40.402Z,5.93
2022-11-13T21:26:07.895Z,5.47
2022-11-13T21:28:35.262Z,5.63
2022-11-13T21:31:08.536Z,6.17
2022-11-13T21:33:39.704Z,6.30
2022-11-13T21:36:14.956Z,5.47
2022-11-13T21:38:44.456Z,6.23
2022-11-13T21:41:22.142Z,5.73
2022-11-13T21:44:04.531Z,5.90
2022-11-13T21:46:33.738Z,5.90
2022-11-13T21:49:05.887Z,5.83
2022-11-13T21:51:35.019Z,6.40
2022-11-13T21:54:01.944Z,5.33
2022-11-13T21:56:29.960Z,5.43
2022-11-13T21:58:56.905Z,5.03
2022-11-13T22:01:24.820Z,6.10
2022-11-13T22:03:52.041Z,5.50
2022-11-13T22:06:33.422Z,5.87
2022-11-13T22:09:01.862Z,5.47
2022-11-13T22:11:31.241Z,6.00
2022-11-13T22:13:58.296Z,6.23
2022-11-13T22:16:26.611Z,5.80
2022-11-13T22:18:55.053Z,6.13
2022-11-13T22:21:23.171Z,5.40
2022-11-13T22:23:50.352Z,5.57
2022-11-13T22:26:18.365Z,5.93
2022-11-13T22:28:46.528Z,6.33
2022-11-13T22:31:25.369Z,5.90
2022-11-13T22:33:55.062Z,5.50
2022-11-13T22:36:29.342Z,5.70
2022-11-13T22:38:57.138Z,5.77
2022-11-13T22:41:29.315Z,5.30
2022-11-13T22:44:01.678Z,5.43
2022-11-13T22:46:30.272Z,5.73
2022-11-13T22:48:59.654Z,5.27
2022-11-13T22:51:28.132Z,6.33
2022-11-13T22:53:57.832Z,5.87
2022-11-13T22:56:26.318Z,5.20
2022-11-13T22:58:54.643Z,4.67
2022-11-13T23:01:30.156Z,5.23
2022-11-13T23:03:59.382Z,5.20
2022-11-13T23:06:27.878Z,5.97
2022-11-13T23:08:55.012Z,5.30
2022-11-13T23:11:28.578Z,5.93
2022-11-13T23:13:57.787Z,5.30
2022-11-13T23:16:26.172Z,5.23
2022-11-13T23:18:55.798Z,4.90
2022-11-13T23:21:23.349Z,5.10
2022-11-13T23:23:50.443Z,4.80
2022-11-13T23:26:18.523Z,5.00
2022-11-13T23:28:45.548Z,6.00
2022-11-13T23:31:12.621Z,4.93
2022-11-13T23:33:40.471Z,5.30
2022-11-13T23:36:08.458Z,5.13
2022-11-13T23:38:35.536Z,4.83
2022-11-13T23:41:02.429Z,4.77
2022-11-13T23:44:01.725Z,5.00
2022-11-13T23:46:16.848Z,4.97
2022-11-13T23:48:43.650Z,5.07
2022-11-13T23:51:10.633Z,4.50
2022-11-13T23:53:37.244Z,4.67
2022-11-13T23:56:04.430Z,4.93
2022-11-13T23:58:32.435Z,5.10
